createdAt,value
2022-10-18T00:01:49.004Z,36.40
2022-10-18T00:04:20.745Z,34.80
2022-10-18T00:06:52.517Z,35.30
2022-10-18T00:09:24.925Z,34.30
2022-10-18T00:11:57.388Z,35.30
2022-10-18T00:14:29.156Z,34.30
2022-10-18T00:17:01.276Z,34.10
2022-10-18T00:19:33.175Z,33.50
2022-10-18T00:22:04.973Z,34.70
2022-10-18T00:24:37.063Z,33.90
2022-10-18T00:27:08.941Z,35.00
2022-10-18T00:29:40.771Z,35.20
2022-10-18T00:32:15.428Z,35.20
2022-10-18T00:34:47.370Z,35.20
2022-10-18T00:37:19.482Z,35.70
2022-10-18T00:42:31.951Z,34.40
2022-10-18T00:45:16.395Z,35.80
2022-10-18T00:47:57.158Z,34.90
2022-10-18T00:50:32.257Z,34.60
2022-10-18T00:53:07.794Z,34.10
2022-10-18T00:55:40.070Z,34.20
2022-10-18T00:58:12.745Z,34.20
2022-10-18T01:00:44.574Z,33.90
2022-10-18T01:03:16.428Z,32.60
2022-10-18T01:05:50.673Z,35.60
2022-10-18T01:08:44.964Z,35.50
2022-10-18T01:11:43.992Z,34.10
2022-10-18T01:14:25.618Z,34.70
2022-10-18T01:17:02.950Z,33.60
2022-10-18T01:20:19.517Z,34.40
2022-10-18T01:22:57.022Z,34.70
2022-10-18T01:25:43.146Z,33.90
2022-10-18T01:28:29.030Z,35.00
2022-10-18T01:31:03.586Z,34.00
2022-10-18T01:33:42.767Z,35.00
2022-10-18T01:36:21.058Z,34.50
2022-10-18T01:38:57.023Z,35.10
2022-10-18T01:41:30.017Z,33.40
2022-10-18T01:44:05.789Z,34.90
2022-10-18T01:46:38.877Z,35.40
2022-10-18T01:49:11.011Z,33.90
2022-10-18T01:51:42.983Z,34.40
2022-10-18T01:54:20.370Z,33.90
2022-10-18T01:57:01.133Z,34.50
2022-10-18T01:59:53.342Z,34.10
2022-10-18T02:02:39.253Z,34.20
2022-10-18T02:05:19.603Z,33.90
2022-10-18T02:08:12.183Z,34.00
2022-10-18T02:10:53.963Z,33.20
2022-10-18T02:13:31.145Z,33.40
2022-10-18T02:16:08.858Z,34.00
2022-10-18T02:18:43.577Z,34.60
2022-10-18T02:21:20.138Z,33.00
2022-10-18T02:23:53.628Z,34.30
2022-10-18T02:26:26.127Z,34.00
2022-10-18T02:28:57.954Z,34.70
2022-10-18T02:31:32.635Z,34.30
2022-10-18T02:34:10.045Z,33.70
2022-10-18T02:36:47.461Z,33.60
2022-10-18T02:39:22.168Z,35.60
2022-10-18T02:41:54.348Z,34.60
2022-10-18T02:44:26.627Z,33.00
2022-10-18T02:46:58.435Z,34.20
2022-10-18T02:49:30.467Z,33.30
2022-10-18T02:52:02.199Z,32.80
2022-10-18T02:54:34.063Z,33.00
2022-10-18T02:57:05.895Z,34.10
2022-10-18T02:59:37.697Z,33.00
2022-10-18T03:02:09.487Z,33.50
2022-10-18T03:04:41.294Z,35.60
2022-10-18T03:07:13.050Z,34.10
2022-10-18T03:09:44.910Z,34.60
2022-10-18T03:12:16.901Z,34.90
2022-10-18T03:14:48.837Z,36.60
2022-10-18T03:17:20.977Z,35.90
2022-10-18T03:19:52.718Z,35.50
2022-10-18T03:22:25.376Z,35.10
2022-10-18T03:24:57.198Z,35.20
2022-10-18T03:27:29.232Z,36.40
2022-10-18T03:30:01.217Z,35.10
2022-10-18T03:32:33.478Z,34.20
2022-10-18T03:35:06.106Z,34.70
2022-10-18T03:37:37.968Z,34.20
2022-10-18T03:40:11.713Z,35.00
2022-10-18T03:42:43.470Z,35.30
2022-10-18T03:45:15.589Z,36.10
2022-10-18T03:47:47.983Z,37.60
2022-10-18T03:50:19.948Z,36.70
2022-10-18T03:52:51.718Z,36.20
2022-10-18T03:55:23.477Z,36.10
2022-10-18T03:57:55.373Z,35.80
2022-10-18T04:00:27.203Z,36.10
2022-10-18T04:02:59.040Z,34.50
2022-10-18T04:05:31.613Z,35.40
2022-10-18T04:08:03.414Z,36.10
2022-10-18T04:10:35.218Z,36.80
2022-10-18T04:13:07.090Z,35.90
2022-10-18T04:15:38.969Z,36.50
2022-10-18T04:18:10.720Z,35.80
2022-10-18T04:20:42.666Z,35.20
2022-10-18T04:23:14.657Z,37.40
2022-10-18T04:25:46.522Z,39.50
2022-10-18T04:28:18.870Z,37.40
2022-10-18T04:30:54.041Z,37.80
2022-10-18T04:33:25.962Z,36.50
2022-10-18T04:35:57.930Z,36.90
2022-10-18T04:38:29.819Z,36.50
2022-10-18T04:41:01.765Z,38.40
2022-10-18T04:43:33.717Z,36.30
2022-10-18T04:46:05.602Z,37.40
2022-10-18T04:48:37.326Z,37.30
2022-10-18T04:51:09.267Z,37.20
2022-10-18T04:53:41.113Z,36.40
2022-10-18T04:56:12.884Z,36.50
2022-10-18T04:58:44.711Z,36.50
2022-10-18T05:01:19.056Z,36.40
2022-10-18T05:03:54.902Z,36.50
2022-10-18T05:06:26.900Z,35.00
2022-10-18T05:08:58.785Z,36.30
2022-10-18T05:11:30.656Z,36.00
2022-10-18T05:14:02.415Z,35.60
2022-10-18T05:16:34.952Z,35.70
2022-10-18T05:19:07.835Z,35.90
2022-10-18T05:21:39.641Z,35.30
2022-10-18T05:24:12.761Z,36.50
2022-10-18T05:26:44.763Z,36.60
2022-10-18T05:29:16.694Z,37.70
2022-10-18T05:31:49.221Z,37.20
2022-10-18T05:34:22.064Z,38.20
2022-10-18T05:36:54.228Z,37.50
2022-10-18T05:39:26.517Z,37.20
2022-10-18T05:41:58.648Z,38.50
2022-10-18T05:44:30.529Z,37.40
2022-10-18T05:47:02.251Z,37.00
2022-10-18T05:49:34.338Z,38.90
2022-10-18T05:52:06.619Z,39.50
2022-10-18T05:54:38.433Z,38.40
2022-10-18T05:57:10.365Z,38.00
2022-10-18T05:59:42.150Z,38.60
2022-10-18T06:02:14.137Z,39.40
2022-10-18T06:04:46.108Z,37.90
2022-10-18T06:07:18.538Z,39.00
2022-10-18T06:09:50.343Z,39.50
2022-10-18T06:12:22.291Z,39.00
2022-10-18T06:14:54.069Z,39.00
2022-10-18T06:17:27.781Z,38.10
2022-10-18T06:20:02.296Z,38.20
2022-10-18T06:22:34.714Z,37.80
2022-10-18T06:25:07.784Z,39.00
2022-10-18T06:27:39.534Z,37.20
2022-10-18T06:30:13.044Z,34.30
2022-10-18T06:32:44.925Z,35.70
2022-10-18T06:35:16.816Z,36.90
2022-10-18T06:37:48.738Z,36.20
2022-10-18T06:40:20.708Z,37.00
2022-10-18T06:43:00.161Z,36.80
2022-10-18T06:45:38.190Z,35.80
2022-10-18T06:48:10.614Z,36.00
2022-10-18T06:50:42.609Z,36.80
2022-10-18T06:53:14.448Z,36.50
2022-10-18T06:55:46.824Z,35.20
2022-10-18T06:58:18.790Z,34.50
2022-10-18T07:00:50.593Z,35.10
2022-10-18T07:03:22.902Z,34.70
2022-10-18T07:05:54.639Z,34.40
2022-10-18T07:08:27.039Z,33.30
2022-10-18T07:10:59.627Z,33.70
2022-10-18T07:13:33.363Z,35.50
2022-10-18T07:16:08.062Z,36.50
2022-10-18T07:18:42.210Z,35.70
2022-10-18T07:21:16.475Z,35.90
2022-10-18T07:23:49.452Z,35.70
2022-10-18T07:26:23.171Z,36.80
2022-10-18T07:28:57.997Z,37.10
2022-10-18T07:31:30.859Z,36.20
2022-10-18T07:34:04.547Z,36.90
2022-10-18T07:36:36.683Z,37.80
2022-10-18T07:39:08.599Z,36.00
2022-10-18T07:41:40.707Z,37.70
2022-10-18T07:44:12.665Z,41.40
2022-10-18T07:46:44.376Z,64.80
2022-10-18T07:49:17.200Z,55.00
2022-10-18T07:51:49.049Z,134.00
2022-10-18T07:54:20.852Z,85.30
2022-10-18T07:56:52.901Z,60.70
2022-10-18T07:59:24.738Z,75.20
2022-10-18T08:01:56.855Z,64.50
2022-10-18T08:04:29.134Z,146.70
2022-10-18T08:07:00.875Z,150.60
2022-10-18T08:09:32.792Z,68.60
2022-10-18T08:12:04.875Z,64.20
2022-10-18T08:14:36.721Z,36.60
2022-10-18T08:17:08.780Z,37.90
2022-10-18T08:19:48.330Z,54.30
2022-10-18T08:22:30.426Z,38.70
2022-10-18T08:25:02.342Z,36.50
2022-10-18T08:27:34.415Z,34.80
2022-10-18T08:30:09.314Z,35.10
2022-10-18T08:32:41.330Z,35.50
2022-10-18T08:35:13.134Z,34.20
2022-10-18T08:37:45.506Z,33.20
2022-10-18T08:40:17.341Z,45.30
2022-10-18T08:43:05.904Z,42.30
2022-10-18T08:45:44.215Z,39.50
2022-10-18T08:48:24.545Z,32.80
2022-10-18T08:50:57.533Z,34.10
2022-10-18T08:53:37.636Z,36.50
2022-10-18T08:56:15.592Z,36.40
2022-10-18T08:58:47.619Z,39.60
2022-10-18T09:01:29.335Z,42.90
2022-10-18T09:04:31.659Z,35.60
2022-10-18T09:07:25.622Z,35.60
2022-10-18T09:10:05.307Z,35.30
2022-10-18T09:13:02.876Z,35.80
2022-10-18T09:15:46.974Z,34.30
2022-10-18T09:18:37.376Z,34.10
2022-10-18T09:21:18.524Z,34.90
2022-10-18T09:23:55.403Z,35.00
2022-10-18T09:26:36.007Z,34.80
2022-10-18T09:29:28.594Z,34.30
2022-10-18T09:32:05.606Z,39.40
2022-10-18T09:34:43.506Z,38.10
2022-10-18T09:37:19.093Z,35.90
2022-10-18T09:39:53.176Z,34.40
2022-10-18T09:42:30.520Z,32.90
2022-10-18T09:45:08.210Z,34.30
2022-10-18T09:47:46.427Z,34.30
2022-10-18T09:50:26.578Z,33.60
2022-10-18T09:53:05.153Z,33.30
2022-10-18T09:55:44.584Z,35.10
2022-10-18T09:58:18.086Z,35.90
2022-10-18T10:00:53.811Z,35.40
2022-10-18T10:03:28.320Z,34.90
2022-10-18T10:06:24.430Z,34.70
2022-10-18T10:09:07.458Z,49.50
2022-10-18T10:11:45.650Z,39.60
2022-10-18T10:14:19.639Z,35.50
2022-10-18T10:16:54.773Z,33.90
2022-10-18T10:19:32.017Z,36.30
2022-10-18T10:22:07.595Z,30.50
2022-10-18T10:24:49.056Z,29.20
2022-10-18T10:27:25.948Z,26.40
2022-10-18T10:30:04.205Z,28.60
2022-10-18T10:32:50.799Z,28.80
2022-10-18T10:35:52.598Z,30.60
2022-10-18T10:38:28.355Z,26.60
2022-10-18T10:41:01.002Z,31.90
2022-10-18T10:43:38.786Z,25.90
2022-10-18T10:46:13.838Z,28.00
2022-10-18T10:49:09.620Z,27.90
2022-10-18T10:52:02.538Z,27.00
2022-10-18T10:54:51.260Z,25.70
2022-10-18T10:57:29.122Z,27.90
2022-10-18T11:00:01.820Z,25.90
2022-10-18T11:02:35.990Z,26.60
2022-10-18T11:05:25.564Z,31.60
2022-10-18T11:08:00.505Z,26.80
2022-10-18T11:10:35.714Z,25.90
2022-10-18T11:13:23.878Z,24.90
2022-10-18T11:16:02.123Z,25.60
2022-10-18T11:18:38.476Z,25.50
2022-10-18T11:21:16.363Z,26.10
2022-10-18T11:23:49.054Z,27.40
2022-10-18T11:26:47.030Z,26.40
2022-10-18T11:29:41.651Z,26.70
2022-10-18T11:32:24.540Z,29.40
2022-10-18T11:35:08.607Z,33.20
2022-10-18T11:37:59.431Z,28.00
2022-10-18T11:40:58.461Z,26.30
2022-10-18T11:44:01.149Z,29.90
2022-10-18T11:46:46.710Z,24.50
2022-10-18T11:49:49.949Z,24.80
2022-10-18T11:52:29.610Z,24.10
2022-10-18T11:55:13.644Z,24.20
2022-10-18T11:57:57.133Z,23.50
2022-10-18T12:00:44.911Z,22.00
2022-10-18T12:03:34.066Z,20.30
2022-10-18T12:06:13.153Z,21.00
2022-10-18T12:08:49.580Z,21.20
2022-10-18T12:11:26.081Z,18.80
2022-10-18T12:14:01.573Z,15.60
2022-10-18T12:16:50.900Z,14.60
2022-10-18T12:19:27.463Z,12.60
2022-10-18T12:22:13.618Z,13.70
2022-10-18T12:27:45.352Z,12.20
2022-10-18T12:30:28.655Z,12.50
2022-10-18T12:33:26.739Z,12.90
2022-10-18T12:36:14.837Z,12.70
2022-10-18T12:38:53.847Z,13.10
2022-10-18T12:41:29.893Z,13.10
2022-10-18T12:44:06.329Z,12.40
2022-10-18T12:46:50.583Z,12.50
2022-10-18T12:49:28.694Z,11.70
2022-10-18T12:52:03.053Z,12.90
2022-10-18T12:54:37.345Z,11.70
2022-10-18T12:57:27.373Z,12.50
2022-10-18T12:59:59.611Z,12.00
2022-10-18T13:02:32.887Z,12.20
2022-10-18T13:05:56.214Z,12.00
2022-10-18T13:08:43.350Z,11.80
2022-10-18T13:11:36.923Z,12.00
2022-10-18T13:14:36.139Z,11.70
2022-10-18T13:17:24.873Z,12.20
2022-10-18T13:20:25.193Z,12.50
2022-10-18T13:23:10.045Z,12.60
2022-10-18T13:25:56.137Z,14.70
2022-10-18T13:28:37.158Z,16.10
2022-10-18T13:31:20.283Z,16.20
2022-10-18T13:33:52.285Z,15.30
2022-10-18T13:36:26.485Z,17.50
2022-10-18T13:39:07.158Z,17.60
2022-10-18T13:42:09.602Z,16.30
2022-10-18T13:44:42.255Z,17.70
2022-10-18T13:47:15.867Z,16.70
2022-10-18T13:50:20.894Z,16.80
2022-10-18T13:53:27.214Z,17.30
2022-10-18T13:56:23.158Z,17.80
2022-10-18T13:59:14.938Z,17.30
2022-10-18T14:02:02.496Z,17.40
2022-10-18T14:05:23.386Z,16.90
2022-10-18T14:08:08.056Z,17.60
2022-10-18T14:11:01.914Z,15.80
2022-10-18T14:13:43.107Z,17.10
2022-10-18T14:16:28.917Z,17.80
2022-10-18T14:19:09.440Z,18.10
2022-10-18T14:21:48.879Z,19.50
2022-10-18T14:24:24.387Z,21.20
2022-10-18T14:27:20.255Z,19.60
2022-10-18T14:30:08.401Z,18.70
2022-10-18T14:32:44.069Z,24.10
2022-10-18T14:35:32.929Z,20.90
2022-10-18T14:38:07.296Z,19.40
2022-10-18T14:40:41.313Z,19.40
2022-10-18T14:43:16.849Z,19.50
2022-10-18T14:45:48.725Z,35.30
2022-10-18T14:48:23.972Z,23.80
2022-10-18T14:51:00.534Z,24.50
2022-10-18T14:53:38.440Z,23.40
2022-10-18T14:56:20.927Z,22.80
2022-10-18T14:58:54.115Z,21.60
2022-10-18T15:01:28.914Z,22.10
2022-10-18T15:04:03.739Z,21.60
2022-10-18T15:06:36.105Z,20.80
2022-10-18T15:09:10.014Z,22.20
2022-10-18T15:11:43.489Z,21.70
2022-10-18T15:14:19.041Z,22.00
2022-10-18T15:16:53.633Z,23.10
2022-10-18T15:19:34.586Z,21.90
2022-10-18T15:25:19.628Z,25.90
2022-10-18T15:27:54.620Z,27.20
2022-10-18T15:30:29.015Z,25.30
2022-10-18T15:33:03.188Z,25.80
2022-10-18T15:35:36.972Z,24.60
2022-10-18T15:38:18.487Z,24.60
2022-10-18T15:40:50.642Z,34.20
2022-10-18T15:43:38.759Z,28.10
2022-10-18T15:46:49.506Z,27.50
2022-10-18T15:49:56.518Z,26.90
2022-10-18T15:52:40.762Z,26.00
2022-10-18T15:55:56.298Z,25.60
2022-10-18T15:58:32.132Z,24.90
2022-10-18T16:01:47.273Z,23.80
2022-10-18T16:04:25.716Z,22.30
2022-10-18T16:07:25.241Z,21.70
2022-10-18T16:09:57.182Z,19.80
2022-10-18T16:12:29.384Z,18.40
2022-10-18T16:15:01.426Z,19.40
2022-10-18T16:17:34.429Z,19.50
2022-10-18T16:20:21.551Z,18.10
2022-10-18T16:22:53.608Z,16.40
2022-10-18T16:25:26.691Z,17.20
2022-10-18T16:28:01.752Z,16.60
2022-10-18T16:30:37.001Z,15.30
2022-10-18T16:35:55.967Z,17.70
2022-10-18T16:38:35.189Z,20.10
2022-10-18T16:41:09.262Z,16.60
2022-10-18T16:43:41.010Z,16.90
2022-10-18T16:46:18.884Z,15.30
2022-10-18T16:48:52.280Z,15.10
2022-10-18T16:51:24.350Z,14.30
2022-10-18T16:53:56.960Z,15.30
2022-10-18T16:56:31.506Z,16.80
2022-10-18T16:59:03.489Z,21.10
2022-10-18T17:01:35.415Z,23.30
2022-10-18T17:04:09.740Z,21.30
2022-10-18T17:06:41.812Z,17.40
2022-10-18T17:09:15.527Z,18.30
2022-10-18T17:11:50.123Z,16.90
2022-10-18T17:14:25.504Z,15.80
2022-10-18T17:16:57.635Z,15.30
2022-10-18T17:19:29.476Z,15.10
2022-10-18T17:22:02.769Z,14.10
2022-10-18T17:24:34.941Z,14.30
2022-10-18T17:27:07.129Z,15.10
2022-10-18T17:29:43.437Z,16.00
2022-10-18T17:32:18.021Z,15.50
2022-10-18T17:34:49.908Z,15.70
2022-10-18T17:37:22.029Z,15.90
2022-10-18T17:39:54.325Z,15.60
2022-10-18T17:42:26.393Z,15.20
2022-10-18T17:44:58.817Z,15.40
2022-10-18T17:47:32.685Z,15.70
2022-10-18T17:50:05.063Z,16.30
2022-10-18T17:52:36.970Z,17.30
2022-10-18T17:55:09.559Z,16.80
2022-10-18T17:57:51.060Z,16.30
2022-10-18T18:00:24.591Z,14.70
2022-10-18T18:02:59.743Z,15.50
2022-10-18T18:05:35.181Z,14.70
2022-10-18T18:08:07.263Z,14.90
2022-10-18T18:10:39.175Z,14.80
2022-10-18T18:13:11.202Z,15.10
2022-10-18T18:15:43.873Z,15.70
2022-10-18T18:18:15.791Z,15.00
2022-10-18T18:20:55.171Z,15.90
2022-10-18T18:23:28.262Z,15.50
2022-10-18T18:26:01.008Z,15.30
2022-10-18T18:28:35.611Z,15.20
2022-10-18T18:31:12.025Z,15.40
2022-10-18T18:33:44.327Z,15.80
2022-10-18T18:37:03.560Z,15.00
2022-10-18T18:39:36.355Z,14.50
2022-10-18T18:42:08.728Z,15.30
2022-10-18T18:44:55.057Z,15.20
2022-10-18T18:47:28.229Z,14.60
2022-10-18T18:50:00.000Z,14.20
2022-10-18T18:52:32.195Z,15.00
2022-10-18T18:55:05.125Z,15.40
2022-10-18T18:57:39.446Z,15.40
2022-10-18T19:00:14.171Z,15.60
2022-10-18T19:02:46.012Z,15.00
2022-10-18T19:05:17.975Z,16.00
2022-10-18T19:07:49.820Z,15.90
2022-10-18T19:10:21.650Z,15.80
2022-10-18T19:12:53.600Z,15.90
2022-10-18T19:15:25.813Z,19.00
2022-10-18T19:17:59.099Z,17.30
2022-10-18T19:20:31.260Z,16.80
2022-10-18T19:23:03.133Z,18.10
2022-10-18T19:25:35.040Z,18.20
2022-10-18T19:31:17.571Z,19.80
2022-10-18T19:33:59.305Z,21.90
2022-10-18T19:36:50.463Z,20.10
2022-10-18T19:39:24.568Z,20.20
2022-10-18T19:41:58.964Z,20.00
2022-10-18T19:44:33.049Z,21.00
2022-10-18T19:47:16.602Z,20.30
2022-10-18T19:49:49.207Z,19.50
2022-10-18T19:52:21.093Z,19.50
2022-10-18T19:54:52.835Z,17.80
2022-10-18T19:57:28.896Z,17.80
2022-10-18T20:00:08.209Z,17.80
2022-10-18T20:02:44.278Z,17.70
2022-10-18T20:05:19.067Z,17.10
2022-10-18T20:07:55.879Z,16.80
2022-10-18T20:10:27.854Z,16.40
2022-10-18T20:12:59.730Z,17.00
2022-10-18T20:15:31.871Z,16.80
2022-10-18T20:18:04.068Z,18.50
2022-10-18T20:20:38.557Z,17.70
2022-10-18T20:23:10.483Z,17.40
2022-10-18T20:25:42.655Z,16.40
2022-10-18T20:28:14.627Z,14.50
2022-10-18T20:30:46.424Z,12.60
2022-10-18T20:33:18.254Z,12.60
2022-10-18T20:35:52.225Z,11.50
2022-10-18T20:38:24.463Z,10.80
2022-10-18T20:40:56.236Z,10.30
2022-10-18T20:43:28.538Z,10.10
2022-10-18T20:46:00.766Z,10.50
2022-10-18T20:48:33.771Z,10.50
2022-10-18T20:51:12.831Z,10.90
2022-10-18T20:53:44.772Z,12.70
2022-10-18T20:56:20.375Z,10.60
2022-10-18T20:58:55.301Z,10.50
2022-10-18T21:01:29.830Z,10.50
2022-10-18T21:04:05.069Z,10.40
2022-10-18T21:06:40.308Z,10.70
2022-10-18T21:09:14.520Z,10.80
2022-10-18T21:11:49.418Z,11.70
2022-10-18T21:14:23.437Z,11.00
2022-10-18T21:16:55.271Z,10.80
2022-10-18T21:19:28.389Z,11.80
2022-10-18T21:22:00.439Z,12.80
2022-10-18T21:24:32.530Z,12.70
2022-10-18T21:27:04.454Z,13.20
2022-10-18T21:29:36.507Z,13.90
2022-10-18T21:32:08.385Z,13.80
2022-10-18T21:34:40.189Z,15.10
2022-10-18T21:37:11.954Z,15.90
2022-10-18T21:39:43.786Z,17.10
2022-10-18T21:42:15.551Z,16.30
2022-10-18T21:44:47.444Z,17.20
2022-10-18T21:47:19.225Z,16.90
2022-10-18T21:49:50.929Z,16.80
2022-10-18T21:52:22.802Z,17.60
2022-10-18T21:54:54.648Z,16.40
2022-10-18T21:57:26.714Z,15.80
2022-10-18T21:59:58.502Z,15.20
2022-10-18T22:02:30.559Z,13.40
2022-10-18T22:05:03.850Z,13.00
2022-10-18T22:07:37.842Z,11.80
2022-10-18T22:10:10.595Z,11.80
2022-10-18T22:12:42.436Z,11.60
2022-10-18T22:15:14.398Z,11.30
2022-10-18T22:17:46.162Z,11.50
2022-10-18T22:20:18.153Z,11.70
2022-10-18T22:22:53.990Z,11.30
2022-10-18T22:25:25.849Z,10.60
2022-10-18T22:27:57.685Z,10.70
2022-10-18T22:30:29.527Z,10.20
2022-10-18T22:33:01.451Z,10.00
2022-10-18T22:35:33.838Z,10.80
2022-10-18T22:38:06.025Z,10.00
2022-10-18T22:40:37.825Z,10.30
2022-10-18T22:43:09.633Z,10.40
2022-10-18T22:45:42.275Z,10.30
2022-10-18T22:48:14.102Z,10.70
2022-10-18T22:50:45.935Z,9.80
2022-10-18T22:53:17.687Z,9.20
2022-10-18T22:55:49.693Z,9.40
2022-10-18T22:58:22.553Z,9.10
2022-10-18T23:01:00.341Z,9.40
2022-10-18T23:03:32.418Z,9.00
2022-10-18T23:06:05.148Z,9.10
2022-10-18T23:08:47.723Z,10.00
2022-10-18T23:11:19.914Z,8.70
2022-10-18T23:13:52.340Z,9.00
2022-10-18T23:16:24.713Z,8.70
2022-10-18T23:18:58.371Z,8.70
2022-10-18T23:21:30.816Z,8.10
2022-10-18T23:24:03.560Z,8.60
2022-10-18T23:26:35.882Z,8.60
2022-10-18T23:29:07.659Z,8.50
2022-10-18T23:31:39.881Z,8.40
2022-10-18T23:34:11.924Z,8.60
2022-10-18T23:39:16.507Z,8.50
2022-10-18T23:41:48.310Z,8.10
2022-10-18T23:44:20.084Z,7.90
2022-10-18T23:46:51.935Z,7.70
2022-10-18T23:49:23.837Z,7.40
2022-10-18T23:51:55.682Z,8.00
2022-10-18T23:54:27.655Z,8.10
2022-10-18T23:56:59.457Z,7.80
2022-10-18T23:59:32.024Z,7.00
